Time;durP1;ratioP1;P1;durP2;ratioP2;P2;SDS_P1;SDS_P2;PMS_P1;PMS_P2;Temp;Humidity;BMP_temperature;BMP_pressure;BME280_temperature;BME280_humidity;BME280_pressure;Samples;Min_cycle;Max_cycle;Signal;HPM_P1;HPM_P2
2023/08/13 00:00:35;;;;;;;;;;;21.90;85.20;;;;;;5032806;28;19921;-54
2023/08/13 00:03:00;;;;;;;;;;;21.90;85.20;;;;;;5034501;28;19967;-53
2023/08/13 00:05:26;;;;;;;;;;;21.90;85.10;;;;;;5032744;28;19913;-54
2023/08/13 00:07:51;;;;;;;;;;;21.80;85.00;;;;;;5033435;28;19916;-53
2023/08/13 00:10:17;;;;;;;;;;;21.90;85.00;;;;;;5034054;28;19946;-53
2023/08/13 00:12:42;;;;;;;;;;;21.80;84.80;;;;;;5032617;28;19917;-53
2023/08/13 00:15:10;;;;;;;;;;;21.80;84.80;;;;;;5033027;28;19913;-53
2023/08/13 00:17:35;;;;;;;;;;;21.80;84.90;;;;;;5033180;28;20004;-53
2023/08/13 00:20:01;;;;;;;;;;;21.80;84.70;;;;;;5033883;28;20009;-53
2023/08/13 00:22:26;;;;;;;;;;;21.80;84.90;;;;;;5034451;28;20349;-54
2023/08/13 00:24:54;;;;;;;;;;;21.80;84.70;;;;;;5032428;28;19989;-53
2023/08/13 00:27:19;;;;;;;;;;;21.80;84.50;;;;;;5033142;28;19952;-53
2023/08/13 00:29:45;;;;;;;;;;;21.80;84.80;;;;;;5033261;28;19956;-54
2023/08/13 00:32:10;;;;;;;;;;;21.80;84.50;;;;;;5033030;28;19913;-53
2023/08/13 00:34:36;;;;;;;;;;;21.80;84.70;;;;;;5033720;28;20318;-53
2023/08/13 00:37:01;;;;;;;;;;;21.80;84.60;;;;;;5033593;28;19975;-53
2023/08/13 00:39:26;;;;;;;;;;;21.80;84.50;;;;;;5032662;28;19964;-55
2023/08/13 00:41:53;;;;;;;;;;;21.80;84.50;;;;;;5015426;28;19959;-53
2023/08/13 00:44:18;;;;;;;;;;;21.80;84.20;;;;;;5032226;28;20361;-53
2023/08/13 00:46:44;;;;;;;;;;;21.80;84.40;;;;;;5032939;28;19967;-53
2023/08/13 00:49:09;;;;;;;;;;;21.80;84.30;;;;;;5033127;28;19964;-53
2023/08/13 00:51:35;;;;;;;;;;;21.80;84.20;;;;;;5032461;28;20354;-53
2023/08/13 00:54:01;;;;;;;;;;;21.70;84.10;;;;;;5031585;28;20003;-53
2023/08/13 00:56:26;;;;;;;;;;;21.70;83.90;;;;;;5033225;28;19909;-53
2023/08/13 00:58:52;;;;;;;;;;;21.80;84.10;;;;;;5015185;28;19910;-53
2023/08/13 01:01:17;;;;;;;;;;;21.80;84.10;;;;;;5032395;28;19994;-53
2023/08/13 01:03:42;;;;;;;;;;;21.70;83.90;;;;;;5033108;28;19924;-53
2023/08/13 01:06:14;;;;;;;;;;;21.70;83.80;;;;;;5015631;28;19910;-53
2023/08/13 01:08:58;;;;;;;;;;;21.70;84.00;;;;;;5031453;28;20024;-53
2023/08/13 01:11:31;;;;;;;;;;;21.70;83.80;;;;;;5032931;28;20528;-53
2023/08/13 01:14:04;;;;;;;;;;;21.70;83.70;;;;;;5031303;28;19971;-53
2023/08/13 01:16:30;;;;;;;;;;;21.70;83.50;;;;;;5032310;28;20000;-53
2023/08/13 01:18:55;;;;;;;;;;;21.70;83.40;;;;;;5030950;28;19960;-54
2023/08/13 01:21:21;;;;;;;;;;;21.70;83.40;;;;;;5033190;28;19909;-53
2023/08/13 01:23:46;;;;;;;;;;;21.70;83.30;;;;;;5030902;28;19917;-53
2023/08/13 01:26:16;;;;;;;;;;;21.70;83.10;;;;;;5032867;28;19945;-53
2023/08/13 01:29:14;;;;;;;;;;;21.70;83.20;;;;;;5029663;28;20341;-54
2023/08/13 01:31:40;;;;;;;;;;;21.70;83.80;;;;;;4998425;28;19917;-53
2023/08/13 01:34:05;;;;;;;;;;;21.60;83.00;;;;;;5032740;28;19916;-53
2023/08/13 01:36:31;;;;;;;;;;;21.60;82.80;;;;;;5031924;28;19909;-53
2023/08/13 01:38:58;;;;;;;;;;;21.60;82.80;;;;;;5029265;28;19919;-55
2023/08/13 01:41:24;;;;;;;;;;;21.60;82.90;;;;;;5015506;28;19909;-53
2023/08/13 01:43:49;;;;;;;;;;;21.60;82.40;;;;;;5013477;28;19921;-53
2023/08/13 01:46:14;;;;;;;;;;;21.60;82.30;;;;;;5032905;28;19909;-53
2023/08/13 01:48:40;;;;;;;;;;;21.70;82.40;;;;;;5032131;28;19967;-53
2023/08/13 01:51:05;;;;;;;;;;;21.70;82.30;;;;;;5032157;28;19960;-53
2023/08/13 01:53:31;;;;;;;;;;;21.60;82.00;;;;;;5030116;28;19965;-53
2023/08/13 01:55:56;;;;;;;;;;;21.60;81.80;;;;;;5032477;28;19913;-53
2023/08/13 01:58:22;;;;;;;;;;;21.60;81.90;;;;;;5031907;28;20323;-53
2023/08/13 02:00:47;;;;;;;;;;;21.60;81.90;;;;;;5031320;28;19913;-53
2023/08/13 02:03:13;;;;;;;;;;;21.60;81.80;;;;;;5032235;28;19963;-53
2023/08/13 02:05:38;;;;;;;;;;;21.60;81.70;;;;;;5031146;28;19963;-53
2023/08/13 02:08:04;;;;;;;;;;;21.50;81.50;;;;;;5030415;28;19979;-53
2023/08/13 02:10:29;;;;;;;;;;;21.50;81.50;;;;;;5032257;28;19914;-54
2023/08/13 02:12:55;;;;;;;;;;;21.50;81.40;;;;;;5032093;28;19920;-53
2023/08/13 02:15:20;;;;;;;;;;;21.50;81.20;;;;;;5030576;28;20011;-53
2023/08/13 02:17:45;;;;;;;;;;;21.50;81.10;;;;;;5030268;28;19971;-53
2023/08/13 02:20:11;;;;;;;;;;;21.50;81.10;;;;;;5033061;28;19963;-53
2023/08/13 02:22:37;;;;;;;;;;;21.50;81.00;;;;;;5030377;28;19993;-53
2023/08/13 02:25:02;;;;;;;;;;;21.50;81.10;;;;;;5031818;28;19921;-54
2023/08/13 02:27:28;;;;;;;;;;;21.50;81.10;;;;;;5031409;28;20004;-54
2023/08/13 02:29:53;;;;;;;;;;;21.50;81.00;;;;;;5031022;28;19913;-53
2023/08/13 02:32:18;;;;;;;;;;;21.50;80.90;;;;;;5032284;28;19967;-53
2023/08/13 02:34:44;;;;;;;;;;;21.50;80.70;;;;;;5030380;28;19917;-54
2023/08/13 02:37:10;;;;;;;;;;;21.50;80.80;;;;;;5031297;28;19917;-53
2023/08/13 02:39:35;;;;;;;;;;;21.50;80.70;;;;;;5031774;28;20377;-53
2023/08/13 02:42:01;;;;;;;;;;;21.50;80.90;;;;;;5031897;28;20392;-53
2023/08/13 02:44:26;;;;;;;;;;;21.50;80.90;;;;;;5029993;28;19909;-53
2023/08/13 02:46:52;;;;;;;;;;;21.40;80.80;;;;;;5014194;28;19913;-54
2023/08/13 02:49:17;;;;;;;;;;;21.40;81.00;;;;;;5029783;28;19986;-53
2023/08/13 02:51:43;;;;;;;;;;;21.40;81.10;;;;;;5031507;28;19963;-53
2023/08/13 02:54:08;;;;;;;;;;;21.40;80.80;;;;;;5031321;28;20355;-53
2023/08/13 02:56:34;;;;;;;;;;;21.40;80.90;;;;;;5031268;28;19918;-53
2023/08/13 02:58:59;;;;;;;;;;;21.40;80.80;;;;;;5030064;28;20440;-53
2023/08/13 03:01:24;;;;;;;;;;;21.40;80.70;;;;;;5031223;28;19962;-54
2023/08/13 03:03:52;;;;;;;;;;;21.30;80.70;;;;;;5030013;28;20650;-53
2023/08/13 03:06:21;;;;;;;;;;;21.40;80.90;;;;;;5031520;28;19913;-54
2023/08/13 03:08:46;;;;;;;;;;;21.30;80.50;;;;;;5024042;28;19909;-53
2023/08/13 03:11:11;;;;;;;;;;;21.30;80.50;;;;;;5019156;28;19959;-53
2023/08/13 03:13:37;;;;;;;;;;;21.30;80.40;;;;;;5030379;28;19963;-53
2023/08/13 03:16:03;;;;;;;;;;;21.40;80.60;;;;;;5030994;28;19916;-53
2023/08/13 03:18:29;;;;;;;;;;;21.30;80.50;;;;;;5029778;28;20350;-54
2023/08/13 03:20:55;;;;;;;;;;;21.30;80.60;;;;;;5031428;28;19944;-53
2023/08/13 03:23:20;;;;;;;;;;;21.30;80.30;;;;;;5030471;28;19921;-53
2023/08/13 03:25:46;;;;;;;;;;;21.30;80.40;;;;;;5031321;28;19910;-53
2023/08/13 03:28:11;;;;;;;;;;;21.30;80.30;;;;;;5030913;28;20502;-53
2023/08/13 03:30:37;;;;;;;;;;;21.30;80.40;;;;;;5030511;28;19909;-54
2023/08/13 03:33:02;;;;;;;;;;;21.30;80.10;;;;;;5029837;28;19963;-53
2023/08/13 03:35:28;;;;;;;;;;;21.30;80.10;;;;;;5031041;28;20007;-53
2023/08/13 03:37:53;;;;;;;;;;;21.30;80.10;;;;;;5013634;28;19916;-53
2023/08/13 03:40:19;;;;;;;;;;;21.30;80.10;;;;;;5031029;28;20480;-53
2023/08/13 03:42:44;;;;;;;;;;;21.30;80.10;;;;;;5033823;28;19928;-53
2023/08/13 03:45:10;;;;;;;;;;;21.30;80.10;;;;;;5034296;28;19909;-53
2023/08/13 03:47:36;;;;;;;;;;;21.30;80.10;;;;;;5031980;28;20348;-53
2023/08/13 03:50:01;;;;;;;;;;;21.30;80.10;;;;;;5034297;28;20289;-53
2023/08/13 03:52:27;;;;;;;;;;;21.30;80.10;;;;;;5034517;28;19909;-53
2023/08/13 03:54:53;;;;;;;;;;;21.30;80.10;;;;;;5034705;28;19999;-53
2023/08/13 03:57:18;;;;;;;;;;;21.30;80.10;;;;;;5030345;28;19924;-53
2023/08/13 03:59:43;;;;;;;;;;;21.20;80.00;;;;;;5033120;28;20087;-54
2023/08/13 04:02:09;;;;;;;;;;;21.20;80.00;;;;;;5032952;28;20048;-53
2023/08/13 04:04:34;;;;;;;;;;;21.20;80.00;;;;;;5034274;28;19959;-54
2023/08/13 04:07:00;;;;;;;;;;;21.20;80.00;;;;;;5034631;28;19999;-53
2023/08/13 04:09:25;;;;;;;;;;;21.20;80.00;;;;;;5033440;28;19921;-53
2023/08/13 04:11:51;;;;;;;;;;;21.20;79.90;;;;;;5034032;28;20270;-53
2023/08/13 04:14:16;;;;;;;;;;;21.20;80.00;;;;;;5033638;28;19909;-53
2023/08/13 04:16:41;;;;;;;;;;;21.20;79.90;;;;;;5032510;28;19939;-53
2023/08/13 04:19:07;;;;;;;;;;;21.20;80.00;;;;;;5034011;28;19919;-53
2023/08/13 04:21:32;;;;;;;;;;;21.20;80.00;;;;;;5034081;28;20059;-53
2023/08/13 04:23:58;;;;;;;;;;;21.20;80.00;;;;;;5032670;28;20018;-53
2023/08/13 04:26:23;;;;;;;;;;;21.20;80.00;;;;;;5034029;28;19909;-53
2023/08/13 04:28:49;;;;;;;;;;;21.20;80.00;;;;;;5015633;28;19921;-53
2023/08/13 04:31:15;;;;;;;;;;;21.10;79.90;;;;;;5030729;28;20336;-54
2023/08/13 04:33:41;;;;;;;;;;;21.10;79.90;;;;;;5032352;28;19917;-53
2023/08/13 04:36:06;;;;;;;;;;;21.20;80.00;;;;;;5034080;28;19909;-53
2023/08/13 04:38:32;;;;;;;;;;;21.10;79.90;;;;;;5033794;28;19979;-53
2023/08/13 04:40:57;;;;;;;;;;;21.10;79.90;;;;;;5032918;28;19917;-53
2023/08/13 04:43:23;;;;;;;;;;;21.10;79.90;;;;;;5033229;28;19917;-53
2023/08/13 04:45:48;;;;;;;;;;;21.10;79.90;;;;;;5031619;28;19912;-53
2023/08/13 04:48:17;;;;;;;;;;;21.10;80.70;;;;;;5032840;28;19968;-53
2023/08/13 04:50:42;;;;;;;;;;;21.10;80.10;;;;;;5033375;28;19909;-53
2023/08/13 04:53:08;;;;;;;;;;;21.10;80.10;;;;;;5032743;28;19917;-53
2023/08/13 04:55:33;;;;;;;;;;;21.10;80.10;;;;;;5032822;28;20360;-53
2023/08/13 04:57:59;;;;;;;;;;;21.10;80.10;;;;;;5033554;28;19913;-53
2023/08/13 05:00:24;;;;;;;;;;;21.10;80.10;;;;;;5030627;28;19917;-53
2023/08/13 05:02:49;;;;;;;;;;;21.10;80.20;;;;;;5033025;28;20070;-53
2023/08/13 05:05:15;;;;;;;;;;;21.10;80.30;;;;;;5032920;28;19913;-53
2023/08/13 05:07:40;;;;;;;;;;;21.10;80.30;;;;;;5033278;28;19909;-53
2023/08/13 05:10:06;;;;;;;;;;;21.10;80.30;;;;;;5031057;28;19913;-53
2023/08/13 05:12:32;;;;;;;;;;;21.10;80.20;;;;;;5033584;28;19909;-54
2023/08/13 05:14:57;;;;;;;;;;;21.10;80.20;;;;;;5012825;28;19924;-53
2023/08/13 05:17:23;;;;;;;;;;;21.10;80.20;;;;;;5031978;28;19913;-53
2023/08/13 05:19:48;;;;;;;;;;;21.10;80.30;;;;;;5032067;28;19920;-53
2023/08/13 05:22:14;;;;;;;;;;;21.10;80.20;;;;;;5033009;28;20004;-53
2023/08/13 05:24:39;;;;;;;;;;;21.10;80.30;;;;;;5031573;28;19917;-54
2023/08/13 05:27:05;;;;;;;;;;;21.00;80.30;;;;;;5033102;28;19995;-53
2023/08/13 05:29:30;;;;;;;;;;;21.10;80.40;;;;;;5010607;28;20312;-53
2023/08/13 05:31:55;;;;;;;;;;;21.00;80.40;;;;;;5022629;28;20301;-53
2023/08/13 05:34:21;;;;;;;;;;;21.00;80.40;;;;;;5031037;28;19913;-53
2023/08/13 05:36:46;;;;;;;;;;;21.10;80.40;;;;;;5032689;28;19914;-53
2023/08/13 05:39:12;;;;;;;;;;;21.00;80.30;;;;;;5032598;28;19949;-53
2023/08/13 05:41:37;;;;;;;;;;;21.00;80.30;;;;;;5030401;28;19924;-53
2023/08/13 05:44:03;;;;;;;;;;;21.00;80.40;;;;;;5031077;28;19978;-53
2023/08/13 05:46:28;;;;;;;;;;;21.00;80.40;;;;;;5032997;28;19909;-54
2023/08/13 05:48:54;;;;;;;;;;;21.10;80.40;;;;;;5031011;28;20339;-53
2023/08/13 05:51:19;;;;;;;;;;;21.10;80.40;;;;;;5032597;28;19913;-54
2023/08/13 05:53:45;;;;;;;;;;;21.10;80.40;;;;;;5031962;28;19924;-53
2023/08/13 05:56:10;;;;;;;;;;;21.10;80.40;;;;;;5031175;28;19914;-53
2023/08/13 05:58:36;;;;;;;;;;;21.10;80.50;;;;;;5028467;28;20000;-53
2023/08/13 06:01:01;;;;;;;;;;;21.10;80.50;;;;;;5030609;28;19913;-53
2023/08/13 06:03:27;;;;;;;;;;;21.10;80.60;;;;;;5015192;28;20012;-53
2023/08/13 06:05:53;;;;;;;;;;;21.00;80.60;;;;;;5030366;28;19913;-53
2023/08/13 06:08:19;;;;;;;;;;;21.00;80.70;;;;;;5031120;28;19944;-53
2023/08/13 06:10:44;;;;;;;;;;;21.00;80.70;;;;;;5031507;28;19913;-54
2023/08/13 06:13:10;;;;;;;;;;;21.00;80.70;;;;;;5030419;28;19964;-53
2023/08/13 06:15:35;;;;;;;;;;;21.00;80.80;;;;;;5031275;28;19913;-53
2023/08/13 06:18:01;;;;;;;;;;;21.00;80.90;;;;;;5031945;28;19913;-53
2023/08/13 06:20:26;;;;;;;;;;;21.00;80.90;;;;;;5031297;28;20011;-53
2023/08/13 06:22:51;;;;;;;;;;;21.00;80.90;;;;;;5032159;28;19960;-53
2023/08/13 06:25:17;;;;;;;;;;;21.00;81.10;;;;;;5031358;28;19913;-53
2023/08/13 06:27:42;;;;;;;;;;;21.10;81.20;;;;;;5028210;28;19943;-53
2023/08/13 06:30:08;;;;;;;;;;;21.00;81.10;;;;;;5031328;28;19913;-53
2023/08/13 06:32:33;;;;;;;;;;;21.00;81.10;;;;;;5029486;28;20377;-53
2023/08/13 06:34:59;;;;;;;;;;;21.00;81.20;;;;;;5031879;28;20345;-53
2023/08/13 06:37:24;;;;;;;;;;;21.00;81.30;;;;;;5031776;28;19909;-53
2023/08/13 06:39:50;;;;;;;;;;;21.00;81.40;;;;;;5031732;28;19913;-54
2023/08/13 06:42:16;;;;;;;;;;;21.00;81.50;;;;;;5011451;28;19913;-53
2023/08/13 06:44:42;;;;;;;;;;;21.00;81.50;;;;;;5029997;28;19921;-53
2023/08/13 06:47:08;;;;;;;;;;;21.00;81.60;;;;;;5031895;28;20004;-53
2023/08/13 06:49:33;;;;;;;;;;;21.00;81.70;;;;;;5031198;28;19983;-53
2023/08/13 06:51:59;;;;;;;;;;;21.00;81.90;;;;;;5031762;28;19936;-53
2023/08/13 06:54:24;;;;;;;;;;;20.90;81.90;;;;;;5029997;28;19913;-53
2023/08/13 06:56:50;;;;;;;;;;;21.00;82.20;;;;;;5030660;28;19921;-53
2023/08/13 06:59:15;;;;;;;;;;;21.00;82.20;;;;;;5030837;28;19917;-53
2023/08/13 07:01:41;;;;;;;;;;;21.00;82.30;;;;;;5030745;28;19920;-53
2023/08/13 07:04:06;;;;;;;;;;;21.00;82.30;;;;;;5030229;28;19924;-53
2023/08/13 07:06:32;;;;;;;;;;;21.00;82.30;;;;;;5031589;28;19995;-54
2023/08/13 07:08:57;;;;;;;;;;;21.00;82.30;;;;;;5030383;28;19924;-53
2023/08/13 07:11:23;;;;;;;;;;;21.00;82.30;;;;;;5013463;28;19913;-53
2023/08/13 07:13:49;;;;;;;;;;;21.00;82.40;;;;;;5030298;28;19959;-53
2023/08/13 07:16:15;;;;;;;;;;;21.00;82.50;;;;;;5031731;28;19917;-53
2023/08/13 07:18:42;;;;;;;;;;;21.00;82.50;;;;;;5033694;28;20395;-53
2023/08/13 07:21:07;;;;;;;;;;;21.00;82.50;;;;;;5034812;28;19913;-53
2023/08/13 07:23:33;;;;;;;;;;;21.00;82.70;;;;;;5031530;28;19917;-53
2023/08/13 07:25:58;;;;;;;;;;;21.00;82.80;;;;;;5010313;28;20504;-53
2023/08/13 07:28:23;;;;;;;;;;;21.00;82.90;;;;;;5015102;28;20718;-53
2023/08/13 07:30:49;;;;;;;;;;;21.00;83.00;;;;;;5031623;28;20288;-53
2023/08/13 07:33:14;;;;;;;;;;;21.00;83.00;;;;;;5033400;28;20367;-54
2023/08/13 07:35:40;;;;;;;;;;;21.00;83.00;;;;;;5025915;28;19917;-53
2023/08/13 07:38:05;;;;;;;;;;;21.00;83.00;;;;;;5029448;28;19921;-53
2023/08/13 07:40:31;;;;;;;;;;;21.00;83.00;;;;;;5031305;28;20361;-53
2023/08/13 07:43:00;;;;;;;;;;;21.00;82.80;;;;;;5015115;28;19917;-53
2023/08/13 07:45:25;;;;;;;;;;;21.00;82.70;;;;;;5031915;28;19953;-53
2023/08/13 07:47:51;;;;;;;;;;;21.00;82.60;;;;;;5033144;28;19963;-53
2023/08/13 07:50:16;;;;;;;;;;;21.10;82.50;;;;;;5021849;28;20060;-53
2023/08/13 07:52:42;;;;;;;;;;;21.10;82.30;;;;;;5030669;28;19913;-53
2023/08/13 07:55:08;;;;;;;;;;;21.10;82.20;;;;;;5033114;28;19917;-53
2023/08/13 07:57:33;;;;;;;;;;;21.10;82.10;;;;;;5031102;28;20292;-53
2023/08/13 07:59:59;;;;;;;;;;;21.10;82.00;;;;;;5025454;28;20063;-53
2023/08/13 08:02:24;;;;;;;;;;;21.10;81.30;;;;;;5025327;28;19971;-53
2023/08/13 08:04:50;;;;;;;;;;;21.10;81.10;;;;;;5031863;28;20393;-53
2023/08/13 08:07:16;;;;;;;;;;;21.10;80.80;;;;;;5030854;28;20285;-53
2023/08/13 08:09:42;;;;;;;;;;;21.10;80.70;;;;;;5034423;28;19920;-53
2023/08/13 08:12:07;;;;;;;;;;;21.10;80.60;;;;;;5038196;28;19913;-54
2023/08/13 08:14:33;;;;;;;;;;;21.10;80.00;;;;;;5030983;28;19913;-53
2023/08/13 08:17:04;;;;;;;;;;;21.10;79.90;;;;;;5022738;28;19925;-54
2023/08/13 08:19:30;;;;;;;;;;;21.10;79.90;;;;;;5041154;28;19913;-53
2023/08/13 08:21:56;;;;;;;;;;;21.10;79.80;;;;;;5041001;28;19920;-53
2023/08/13 08:24:22;;;;;;;;;;;21.10;79.50;;;;;;5033793;28;19919;-53
2023/08/13 08:26:47;;;;;;;;;;;21.20;79.20;;;;;;5033653;28;19909;-53
2023/08/13 08:29:13;;;;;;;;;;;21.10;78.90;;;;;;5031824;28;20024;-53
2023/08/13 08:31:38;;;;;;;;;;;21.20;78.90;;;;;;5035267;28;20299;-55
2023/08/13 08:34:04;;;;;;;;;;;21.20;78.80;;;;;;5031962;28;19921;-53
2023/08/13 08:36:29;;;;;;;;;;;21.20;78.60;;;;;;5027911;28;19917;-54
2023/08/13 08:38:54;;;;;;;;;;;21.20;78.50;;;;;;5032093;28;19917;-53
2023/08/13 08:41:20;;;;;;;;;;;21.20;78.20;;;;;;5021032;28;19920;-54
2023/08/13 08:43:45;;;;;;;;;;;21.20;77.90;;;;;;5024868;28;19921;-53
2023/08/13 08:46:11;;;;;;;;;;;21.20;77.90;;;;;;5031503;28;20400;-53
2023/08/13 08:48:36;;;;;;;;;;;21.20;77.90;;;;;;5015075;28;19928;-53
2023/08/13 08:51:02;;;;;;;;;;;21.20;77.70;;;;;;5014059;28;19921;-53
2023/08/13 08:53:27;;;;;;;;;;;21.20;77.30;;;;;;5013008;28;19917;-53
2023/08/13 08:55:53;;;;;;;;;;;21.20;77.40;;;;;;5030109;28;19917;-53
2023/08/13 08:58:18;;;;;;;;;;;21.30;77.20;;;;;;5039129;28;19917;-53
2023/08/13 09:00:44;;;;;;;;;;;21.30;77.30;;;;;;5046928;28;19916;-53
2023/08/13 09:03:09;;;;;;;;;;;21.30;77.10;;;;;;5035881;28;19978;-54
2023/08/13 09:05:36;;;;;;;;;;;21.30;77.20;;;;;;5046047;28;19924;-53
2023/08/13 09:08:19;;;;;;;;;;;21.30;76.60;;;;;;5033309;28;19924;-53
2023/08/13 09:10:45;;;;;;;;;;;21.30;76.50;;;;;;5034630;28;19917;-53
2023/08/13 09:13:10;;;;;;;;;;;21.30;76.40;;;;;;5042732;28;19935;-53
2023/08/13 09:15:41;;;;;;;;;;;21.40;76.20;;;;;;5036406;28;19964;-54
2023/08/13 09:18:07;;;;;;;;;;;21.40;76.20;;;;;;5023245;28;19917;-54
2023/08/13 09:20:32;;;;;;;;;;;21.40;76.10;;;;;;5022590;28;19920;-52
2023/08/13 09:22:58;;;;;;;;;;;21.50;76.40;;;;;;5030893;28;19929;-52
2023/08/13 09:25:24;;;;;;;;;;;21.50;76.20;;;;;;5031443;28;20277;-53
2023/08/13 09:27:49;;;;;;;;;;;21.50;76.10;;;;;;5034136;28;19928;-53
2023/08/13 09:30:18;;;;;;;;;;;21.60;76.40;;;;;;5031736;28;19956;-53
2023/08/13 09:32:45;;;;;;;;;;;21.60;76.10;;;;;;5031543;28;19974;-53
2023/08/13 09:35:10;;;;;;;;;;;21.60;75.80;;;;;;5021658;28;20392;-53
2023/08/13 09:37:36;;;;;;;;;;;21.60;76.00;;;;;;5023154;28;19913;-53
2023/08/13 09:40:01;;;;;;;;;;;21.60;76.00;;;;;;5023348;28;19913;-53
2023/08/13 09:42:27;;;;;;;;;;;21.60;75.70;;;;;;5024531;28;19999;-53
2023/08/13 09:44:55;;;;;;;;;;;21.70;75.80;;;;;;5020905;28;20341;-53
2023/08/13 09:47:23;;;;;;;;;;;21.70;75.70;;;;;;5025662;28;19913;-54
2023/08/13 09:49:49;;;;;;;;;;;21.80;75.40;;;;;;5016241;28;20267;-53
2023/08/13 09:52:14;;;;;;;;;;;21.80;75.30;;;;;;5033309;28;19917;-53
2023/08/13 09:54:53;;;;;;;;;;;21.70;75.20;;;;;;5029000;28;19917;-53
2023/08/13 09:57:18;;;;;;;;;;;21.70;75.10;;;;;;5039800;28;19913;-53
2023/08/13 09:59:44;;;;;;;;;;;21.70;75.10;;;;;;5030023;28;20035;-53
2023/08/13 10:02:11;;;;;;;;;;;21.70;75.20;;;;;;5036814;28;19941;-53
2023/08/13 10:04:40;;;;;;;;;;;21.60;75.00;;;;;;5044114;28;19917;-53
2023/08/13 10:07:06;;;;;;;;;;;21.70;75.00;;;;;;5049721;28;19913;-54
2023/08/13 10:09:32;;;;;;;;;;;21.70;74.80;;;;;;5040485;28;19974;-53
2023/08/13 10:11:57;;;;;;;;;;;21.70;74.40;;;;;;5035273;28;20414;-54
2023/08/13 10:14:22;;;;;;;;;;;21.70;74.40;;;;;;5018787;28;19921;-53
2023/08/13 10:16:48;;;;;;;;;;;21.70;74.40;;;;;;5029921;28;19917;-53
2023/08/13 10:19:14;;;;;;;;;;;21.80;74.50;;;;;;5025131;28;19967;-53
2023/08/13 10:21:40;;;;;;;;;;;21.80;74.20;;;;;;5031052;28;20014;-53
2023/08/13 10:24:10;;;;;;;;;;;21.80;74.40;;;;;;5030826;28;20414;-53
2023/08/13 10:26:35;;;;;;;;;;;21.80;74.60;;;;;;5012393;28;20012;-53
2023/08/13 10:29:13;;;;;;;;;;;21.80;74.50;;;;;;5029658;28;20064;-53
2023/08/13 10:31:38;;;;;;;;;;;21.80;74.30;;;;;;5033755;28;19924;-53
2023/08/13 10:34:08;;;;;;;;;;;21.80;74.60;;;;;;5015164;28;19921;-53
2023/08/13 10:36:44;;;;;;;;;;;21.80;74.60;;;;;;5031390;28;19938;-53
2023/08/13 10:39:28;;;;;;;;;;;21.80;74.80;;;;;;5029621;28;19921;-53
2023/08/13 10:41:53;;;;;;;;;;;21.80;74.60;;;;;;5030707;28;19996;-53
2023/08/13 10:44:26;;;;;;;;;;;21.70;74.90;;;;;;5029608;28;20004;-53
2023/08/13 10:46:51;;;;;;;;;;;21.80;75.00;;;;;;5024217;28;19913;-53
2023/08/13 10:49:17;;;;;;;;;;;21.80;75.20;;;;;;5024723;28;19974;-53
2023/08/13 10:51:42;;;;;;;;;;;21.80;75.30;;;;;;5033955;28;19916;-53
2023/08/13 10:54:08;;;;;;;;;;;21.80;75.50;;;;;;5036946;28;20389;-53
2023/08/13 10:56:33;;;;;;;;;;;21.80;75.40;;;;;;5037400;28;19909;-53
2023/08/13 10:59:00;;;;;;;;;;;21.80;75.60;;;;;;5035011;28;19917;-53
2023/08/13 11:01:26;;;;;;;;;;;21.90;75.70;;;;;;5033921;28;19921;-53
2023/08/13 11:03:54;;;;;;;;;;;21.90;75.50;;;;;;5035444;28;19913;-53
2023/08/13 11:06:20;;;;;;;;;;;22.00;75.50;;;;;;5040440;28;19923;-53
2023/08/13 11:08:46;;;;;;;;;;;22.00;75.40;;;;;;5054109;28;20361;-53
2023/08/13 11:11:13;;;;;;;;;;;22.10;75.30;;;;;;5034559;28;20395;-53
2023/08/13 11:13:38;;;;;;;;;;;22.10;75.00;;;;;;5034691;28;19948;-54
2023/08/13 11:16:03;;;;;;;;;;;22.10;74.70;;;;;;5033791;28;19979;-53
2023/08/13 11:18:29;;;;;;;;;;;22.20;74.20;;;;;;5035282;28;20274;-54
2023/08/13 11:20:54;;;;;;;;;;;22.20;74.20;;;;;;5035065;28;20059;-53
2023/08/13 11:23:20;;;;;;;;;;;22.20;74.10;;;;;;5033329;28;19924;-53
2023/08/13 11:25:49;;;;;;;;;;;22.20;73.90;;;;;;5031884;28;19913;-53
2023/08/13 11:28:27;;;;;;;;;;;22.20;74.00;;;;;;5034009;28;19913;-54
2023/08/13 11:30:58;;;;;;;;;;;22.20;73.80;;;;;;5033087;28;20320;-53
2023/08/13 11:33:24;;;;;;;;;;;22.20;73.70;;;;;;5033617;28;19983;-55
2023/08/13 11:35:50;;;;;;;;;;;22.20;73.90;;;;;;5034633;28;19917;-54
2023/08/13 11:38:15;;;;;;;;;;;22.20;74.00;;;;;;5031831;28;19913;-53
2023/08/13 11:40:41;;;;;;;;;;;22.20;73.80;;;;;;5027067;28;20419;-54
2023/08/13 11:43:08;;;;;;;;;;;22.10;73.90;;;;;;5030039;28;19917;-53
2023/08/13 11:45:34;;;;;;;;;;;22.20;74.10;;;;;;5030484;28;20009;-53
2023/08/13 11:48:13;;;;;;;;;;;22.20;74.00;;;;;;5033522;28;19948;-53
2023/08/13 11:50:39;;;;;;;;;;;22.20;73.60;;;;;;5015614;28;19921;-53
2023/08/13 11:53:07;;;;;;;;;;;22.20;73.30;;;;;;5034732;28;19917;-53
2023/08/13 11:55:33;;;;;;;;;;;22.20;73.30;;;;;;5034108;28;19917;-53
2023/08/13 11:57:58;;;;;;;;;;;22.20;73.30;;;;;;5014400;28;20289;-53
2023/08/13 12:00:24;;;;;;;;;;;22.20;73.40;;;;;;5028359;28;20369;-54
2023/08/13 12:02:53;;;;;;;;;;;22.10;73.40;;;;;;5034409;28;19917;-53
2023/08/13 12:05:18;;;;;;;;;;;22.20;73.40;;;;;;5034503;28;20020;-53
2023/08/13 12:07:43;;;;;;;;;;;22.20;73.40;;;;;;5034126;28;19949;-54
2023/08/13 12:10:09;;;;;;;;;;;22.20;73.20;;;;;;5035879;28;19924;-53
2023/08/13 12:12:34;;;;;;;;;;;22.20;73.10;;;;;;5033061;28;19913;-53
2023/08/13 12:15:00;;;;;;;;;;;22.20;72.60;;;;;;5033142;28;19909;-54
2023/08/13 12:17:25;;;;;;;;;;;22.30;72.30;;;;;;5034546;28;19958;-53
2023/08/13 12:19:51;;;;;;;;;;;22.40;72.20;;;;;;5034355;28;19935;-54
2023/08/13 12:22:16;;;;;;;;;;;22.40;71.50;;;;;;5026956;28;19920;-53
2023/08/13 12:24:41;;;;;;;;;;;22.50;71.70;;;;;;5027307;28;20377;-54
2023/08/13 12:27:12;;;;;;;;;;;22.50;71.60;;;;;;5018480;28;19917;-54
2023/08/13 12:29:38;;;;;;;;;;;22.50;71.00;;;;;;5031177;28;19913;-53
2023/08/13 12:32:03;;;;;;;;;;;22.60;70.90;;;;;;5026496;28;19940;-54
2023/08/13 12:34:29;;;;;;;;;;;22.60;71.00;;;;;;5031330;28;19917;-53
2023/08/13 12:36:54;;;;;;;;;;;22.70;70.80;;;;;;5032959;28;19953;-54
2023/08/13 12:39:20;;;;;;;;;;;22.70;70.60;;;;;;5032622;28;19928;-54
2023/08/13 12:41:45;;;;;;;;;;;22.70;70.50;;;;;;5031218;28;19963;-53
2023/08/13 12:44:11;;;;;;;;;;;22.70;70.60;;;;;;5022782;28;20381;-53
2023/08/13 12:46:36;;;;;;;;;;;22.70;69.70;;;;;;5028677;28;20368;-53
2023/08/13 12:49:03;;;;;;;;;;;22.70;69.30;;;;;;5033154;28;19921;-53
2023/08/13 12:51:28;;;;;;;;;;;22.70;69.30;;;;;;5032540;28;19953;-53
2023/08/13 12:53:54;;;;;;;;;;;22.70;69.30;;;;;;5032339;28;20348;-53
2023/08/13 12:56:19;;;;;;;;;;;22.70;69.30;;;;;;5031802;28;19917;-53
2023/08/13 12:58:46;;;;;;;;;;;22.60;69.30;;;;;;5038495;28;19964;-53
2023/08/13 13:01:11;;;;;;;;;;;22.60;69.20;;;;;;5053482;28;19909;-53
2023/08/13 13:03:37;;;;;;;;;;;22.60;69.20;;;;;;5051210;28;19913;-53
2023/08/13 13:06:02;;;;;;;;;;;22.60;69.10;;;;;;5033360;28;20277;-53
2023/08/13 13:08:28;;;;;;;;;;;22.50;69.10;;;;;;5031333;28;19943;-53
2023/08/13 13:10:53;;;;;;;;;;;22.60;68.70;;;;;;5033571;28;20010;-53
2023/08/13 13:13:19;;;;;;;;;;;22.60;69.70;;;;;;5032896;28;19913;-53
2023/08/13 13:15:45;;;;;;;;;;;22.60;68.90;;;;;;5032713;28;19920;-55
2023/08/13 13:18:10;;;;;;;;;;;22.50;68.70;;;;;;5033025;28;19917;-53
2023/08/13 13:20:35;;;;;;;;;;;22.60;69.00;;;;;;5032162;28;19913;-53
2023/08/13 13:23:01;;;;;;;;;;;22.70;68.70;;;;;;5033057;28;19959;-53
2023/08/13 13:25:26;;;;;;;;;;;22.60;68.10;;;;;;5025495;28;20329;-54
2023/08/13 13:27:52;;;;;;;;;;;22.60;68.00;;;;;;5032780;28;19909;-54
2023/08/13 13:30:18;;;;;;;;;;;22.60;68.20;;;;;;5013345;28;19917;-54
2023/08/13 13:32:43;;;;;;;;;;;22.70;68.10;;;;;;5038166;28;20427;-53
2023/08/13 13:35:08;;;;;;;;;;;22.60;68.00;;;;;;5051016;28;20360;-53
2023/08/13 13:37:34;;;;;;;;;;;22.70;68.20;;;;;;5030460;28;19940;-54
2023/08/13 13:39:59;;;;;;;;;;;22.70;68.00;;;;;;5029442;28;19917;-53
2023/08/13 13:42:25;;;;;;;;;;;22.70;68.40;;;;;;5030327;28;19921;-53
2023/08/13 13:44:50;;;;;;;;;;;22.70;68.40;;;;;;5030491;28;19917;-53
2023/08/13 13:47:16;;;;;;;;;;;22.70;69.10;;;;;;5018283;28;19976;-53
2023/08/13 13:49:41;;;;;;;;;;;22.70;68.20;;;;;;5030926;28;19921;-53
2023/08/13 13:52:07;;;;;;;;;;;22.70;68.20;;;;;;5029929;28;19913;-53
2023/08/13 13:54:33;;;;;;;;;;;22.70;68.40;;;;;;5028593;28;19913;-53
2023/08/13 13:56:58;;;;;;;;;;;22.70;68.30;;;;;;5026580;28;20281;-54
2023/08/13 13:59:24;;;;;;;;;;;22.60;68.10;;;;;;5014599;28;19924;-53
2023/08/13 14:01:50;;;;;;;;;;;22.60;68.10;;;;;;5025161;28;19923;-53
2023/08/13 14:04:16;;;;;;;;;;;22.60;68.40;;;;;;5029906;28;21869;-54
2023/08/13 14:06:41;;;;;;;;;;;22.60;68.30;;;;;;5028865;28;19959;-53
2023/08/13 14:09:07;;;;;;;;;;;22.60;68.50;;;;;;5026382;28;19925;-54